Viyada Naree — 9V2940 — position and weather

sailwx.info

Track history (hours):
 
Tides and Currents Weather Stations Pressure Air Temp Water Temp Dewpoint Dewpoint Depression Visibility Wind Speed Wind Dir Waves Ship Positions

Viyada Naree

Last reported at 2018-Jun-13 11:07 UTC. Time now 2018-Jun-18 02:14 UTC.
Position N 31°16' E 123°18'.

Length 182 m; draft 7 m.

Type: Cargo ship. MMSI: 564538000.

Date/timePositionNaut miles runAvg speedWind from/ knotsBaromVisibWave heightAir tempDewpointWater temp
2018-Jun-13 11:07N 31°16' E 123°18'410.4
2018-Jun-13 10:42N 31°16' E 123°13'410.7
2018-Jun-13 10:22N 31°16' E 123°08'28 6.8
2018-Jun-13 06:14N 31°15' E 122°35'0 0.0
2018-Jun-13 01:59N 31°15' E 122°35'0 0.1
2018-Jun-13 01:26N 31°15' E 122°35'0 0.0
2018-Jun-13 00:56N 31°15' E 122°35'0 0.0
2018-Jun-13 00:23N 31°15' E 122°35'0 0.0
2018-Jun-12 23:44N 31°15' E 122°35'0 0.0
2018-Jun-12 23:26N 31°15' E 122°35'0 0.1
2018-Jun-12 22:59N 31°15' E 122°35'0 0.0
2018-Jun-12 22:29N 31°15' E 122°35'0 0.1
2018-Jun-12 19:02N 31°15' E 122°36'0 0.0
2018-Jun-12 18:53N 31°15' E 122°36'0 0.1
2018-Jun-12 17:59N 31°15' E 122°35'0 0.0
2018-Jun-12 17:29N 31°15' E 122°35'0 0.0
2018-Jun-12 15:05N 31°15' E 122°35'0 0.0
2018-Jun-12 10:47N 31°15' E 122°35'0 0.1
2018-Jun-12 10:29N 31°15' E 122°35'0 0.1
2018-Jun-12 09:59N 31°15' E 122°35'0 0.1
2018-Jun-12 09:29N 31°15' E 122°35'0 0.0
2018-Jun-12 08:59N 31°15' E 122°35'0 0.0
2018-Jun-12 08:26N 31°15' E 122°35'0 0.1
2018-Jun-12 07:59N 31°15' E 122°35'0 0.0
2018-Jun-12 07:29N 31°15' E 122°35'0 0.0
2018-Jun-12 06:41N 31°15' E 122°35'0 0.1
2018-Jun-12 06:29N 31°15' E 122°35'0 0.1
2018-Jun-12 05:59N 31°15' E 122°35'0 0.0
2018-Jun-12 04:53N 31°15' E 122°35'0 0.1
2018-Jun-12 02:35N 31°15' E 122°35'0 0.0
2018-Jun-12 02:23N 31°15' E 122°35'0 0.1
2018-Jun-12 01:41N 31°15' E 122°35'0 0.0
2018-Jun-12 01:26N 31°15' E 122°35'0 0.0
2018-Jun-12 00:47N 31°15' E 122°35'0 0.0
2018-Jun-12 00:29N 31°15' E 122°35'0 0.0
2018-Jun-11 23:59N 31°15' E 122°35'0 0.1
2018-Jun-11 23:29N 31°15' E 122°35'18 0.5
2018-Jun-10 08:03N 31°07' E 122°16'414.2
2018-Jun-10 07:44N 31°10' E 122°12'714.4
2018-Jun-10 07:17N 31°14' E 122°06'2613.9
2018-Jun-10 05:25N 31°22' E 121°37'4 9.3
2018-Jun-10 04:59N 31°24' E 121°33'610.9
2018-Jun-10 04:26N 31°28' E 121°27'512.3
2018-Jun-10 04:00N 31°31' E 121°23'815.4
2018-Jun-10 03:30N 31°37' E 121°16'4 8.4
2018-Jun-10 03:00N 31°40' E 121°13'611.4
2018-Jun-10 02:29N 31°43' E 121°07'3311.1
2018-Jun-09 23:31N 32°01' E 120°34'213.4
2018-Jun-09 23:22N 32°01' E 120°32'513.6
2018-Jun-09 23:00N 32°02' E 120°26'3 5.6
2018-Jun-09 22:24N 32°01' E 120°22'0 0.0
2018-Jun-08 01:50N 32°01' E 120°22'0 0.0
2018-Jun-08 01:14N 32°01' E 120°22'0 0.0
2018-Jun-08 00:56N 32°01' E 120°22'0 0.0
2018-Jun-08 00:23N 32°01' E 120°22'0 0.0
2018-Jun-07 23:59N 32°01' E 120°22'0 0.0
2018-Jun-07 22:38N 32°01' E 120°22'0 0.0
2018-Jun-07 22:08N 32°01' E 120°22'0 0.0
2018-Jun-07 21:56N 32°01' E 120°22'0 0.0
2018-Jun-07 21:26N 32°01' E 120°22'0 0.0
2018-Jun-07 20:50N 32°01' E 120°22'0 0.0
2018-Jun-07 20:26N 32°01' E 120°22'0 0.0
2018-Jun-06 02:05N 32°01' E 120°22'0 0.0
2018-Jun-04 22:41N 32°01' E 120°22'  
Track history (hours):
 
Tides and Currents Weather Stations Pressure Air Temp Water Temp Dewpoint Dewpoint Depression Visibility Wind Speed Wind Dir Waves Ship Positions

Viyada Naree

Last reported at 2018-Jun-13 11:07 UTC. Time now 2018-Jun-18 02:14 UTC.
Position N 31°16' E 123°18'.

Length 182 m; draft 7 m.

Type: Cargo ship. MMSI: 564538000.

Date/timePositionNaut miles runAvg speedWind from/ knotsBaromVisibWave heightAir tempDewpointWater temp
2018-Jun-13 11:07N 31°16' E 123°18'410.4
2018-Jun-13 10:42N 31°16' E 123°13'410.7
2018-Jun-13 10:22N 31°16' E 123°08'28 6.8
2018-Jun-13 06:14N 31°15' E 122°35'0 0.0
2018-Jun-13 01:59N 31°15' E 122°35'0 0.1
2018-Jun-13 01:26N 31°15' E 122°35'0 0.0
2018-Jun-13 00:56N 31°15' E 122°35'0 0.0
2018-Jun-13 00:23N 31°15' E 122°35'0 0.0
2018-Jun-12 23:44N 31°15' E 122°35'0 0.0
2018-Jun-12 23:26N 31°15' E 122°35'0 0.1
2018-Jun-12 22:59N 31°15' E 122°35'0 0.0
2018-Jun-12 22:29N 31°15' E 122°35'0 0.1
2018-Jun-12 19:02N 31°15' E 122°36'0 0.0
2018-Jun-12 18:53N 31°15' E 122°36'0 0.1
2018-Jun-12 17:59N 31°15' E 122°35'0 0.0
2018-Jun-12 17:29N 31°15' E 122°35'0 0.0
2018-Jun-12 15:05N 31°15' E 122°35'0 0.0
2018-Jun-12 10:47N 31°15' E 122°35'0 0.1
2018-Jun-12 10:29N 31°15' E 122°35'0 0.1
2018-Jun-12 09:59N 31°15' E 122°35'0 0.1
2018-Jun-12 09:29N 31°15' E 122°35'0 0.0
2018-Jun-12 08:59N 31°15' E 122°35'0 0.0
2018-Jun-12 08:26N 31°15' E 122°35'0 0.1
2018-Jun-12 07:59N 31°15' E 122°35'0 0.0
2018-Jun-12 07:29N 31°15' E 122°35'0 0.0
2018-Jun-12 06:41N 31°15' E 122°35'0 0.1
2018-Jun-12 06:29N 31°15' E 122°35'0 0.1
2018-Jun-12 05:59N 31°15' E 122°35'0 0.0
2018-Jun-12 04:53N 31°15' E 122°35'0 0.1
2018-Jun-12 02:35N 31°15' E 122°35'0 0.0
2018-Jun-12 02:23N 31°15' E 122°35'0 0.1
2018-Jun-12 01:41N 31°15' E 122°35'0 0.0
2018-Jun-12 01:26N 31°15' E 122°35'0 0.0
2018-Jun-12 00:47N 31°15' E 122°35'0 0.0
2018-Jun-12 00:29N 31°15' E 122°35'0 0.0
2018-Jun-11 23:59N 31°15' E 122°35'0 0.1
2018-Jun-11 23:29N 31°15' E 122°35'18 0.5
2018-Jun-10 08:03N 31°07' E 122°16'414.2
2018-Jun-10 07:44N 31°10' E 122°12'714.4
2018-Jun-10 07:17N 31°14' E 122°06'2613.9
2018-Jun-10 05:25N 31°22' E 121°37'4 9.3
2018-Jun-10 04:59N 31°24' E 121°33'610.9
2018-Jun-10 04:26N 31°28' E 121°27'512.3
2018-Jun-10 04:00N 31°31' E 121°23'815.4
2018-Jun-10 03:30N 31°37' E 121°16'4 8.4
2018-Jun-10 03:00N 31°40' E 121°13'611.4
2018-Jun-10 02:29N 31°43' E 121°07'3311.1
2018-Jun-09 23:31N 32°01' E 120°34'213.4
2018-Jun-09 23:22N 32°01' E 120°32'513.6
2018-Jun-09 23:00N 32°02' E 120°26'3 5.6
2018-Jun-09 22:24N 32°01' E 120°22'0 0.0
2018-Jun-08 01:50N 32°01' E 120°22'0 0.0
2018-Jun-08 01:14N 32°01' E 120°22'0 0.0
2018-Jun-08 00:56N 32°01' E 120°22'0 0.0
2018-Jun-08 00:23N 32°01' E 120°22'0 0.0
2018-Jun-07 23:59N 32°01' E 120°22'0 0.0
2018-Jun-07 22:38N 32°01' E 120°22'0 0.0
2018-Jun-07 22:08N 32°01' E 120°22'0 0.0
2018-Jun-07 21:56N 32°01' E 120°22'0 0.0
2018-Jun-07 21:26N 32°01' E 120°22'0 0.0
2018-Jun-07 20:50N 32°01' E 120°22'0 0.0
2018-Jun-07 20:26N 32°01' E 120°22'0 0.0
2018-Jun-06 02:05N 32°01' E 120°22'0 0.0
2018-Jun-04 22:41N 32°01' E 120°22'  

Dump ship's entire track history